createdAt,value
2023-03-15T00:01:16.670Z,3.3
2023-03-15T00:06:16.723Z,3.0
2023-03-15T00:11:16.674Z,3.8
2023-03-15T00:16:16.528Z,3.4
2023-03-15T00:21:16.460Z,3.2
2023-03-15T00:26:16.398Z,3.1
2023-03-15T00:31:16.399Z,4.2
2023-03-15T00:36:16.397Z,4.0
2023-03-15T00:41:16.293Z,5.5
2023-03-15T00:46:18.206Z,4.4
2023-03-15T00:51:17.310Z,5.5
2023-03-15T00:56:16.224Z,5.2
2023-03-15T01:01:16.028Z,5.9
2023-03-15T01:06:15.932Z,7.7
2023-03-15T01:11:15.896Z,8.4
2023-03-15T01:16:15.959Z,6.7
2023-03-15T01:21:15.816Z,7.5
2023-03-15T01:26:15.779Z,6.7
2023-03-15T01:31:15.715Z,7.3
2023-03-15T01:36:15.647Z,6.3
2023-03-15T01:41:15.690Z,6.6
2023-03-15T01:46:15.717Z,7.3
2023-03-15T01:51:15.450Z,8.0
2023-03-15T01:56:15.422Z,8.3
2023-03-15T02:01:15.453Z,10.5
2023-03-15T02:06:15.321Z,13.9
2023-03-15T02:11:15.335Z,14.3
2023-03-15T02:16:15.282Z,10.3
2023-03-15T02:21:15.200Z,11.0
2023-03-15T02:26:15.148Z,9.5
2023-03-15T02:31:15.121Z,10.3
2023-03-15T02:36:15.010Z,11.7
2023-03-15T02:41:14.898Z,11.6
2023-03-15T02:46:14.948Z,12.4
2023-03-15T02:51:14.817Z,11.9
2023-03-15T02:56:14.778Z,12.3
2023-03-15T03:01:14.954Z,12.5
2023-03-15T03:06:14.754Z,14.0
2023-03-15T03:11:14.614Z,14.7
2023-03-15T03:16:14.554Z,15.3
2023-03-15T03:21:14.489Z,14.9
2023-03-15T03:26:14.459Z,16.7
2023-03-15T03:31:14.499Z,17.6
2023-03-15T03:36:14.397Z,15.3
2023-03-15T03:41:14.317Z,16.1
2023-03-15T03:46:14.300Z,10.9
2023-03-15T03:51:14.176Z,5.5
2023-03-15T03:56:14.138Z,6.3
2023-03-15T04:01:14.056Z,6.7
2023-03-15T04:06:13.999Z,4.9
2023-03-15T04:11:14.039Z,4.1
2023-03-15T04:16:14.029Z,2.8
2023-03-15T04:21:13.934Z,3.0
2023-03-15T04:26:13.835Z,2.3
2023-03-15T04:31:13.887Z,2.8
2023-03-15T04:36:13.736Z,2.7
2023-03-15T04:41:13.663Z,2.8
2023-03-15T04:46:13.591Z,4.1
2023-03-15T04:51:13.586Z,4.5
2023-03-15T04:56:13.595Z,5.2
2023-03-15T05:01:14.604Z,5.8
2023-03-15T05:06:13.435Z,6.0
2023-03-15T05:11:13.362Z,6.8
2023-03-15T05:16:14.792Z,7.6
2023-03-15T05:21:13.202Z,7.8
2023-03-15T05:26:13.165Z,7.7
2023-03-15T05:31:13.092Z,8.1
2023-03-15T05:36:13.104Z,8.0
2023-03-15T05:41:13.054Z,8.6
2023-03-15T05:46:12.974Z,9.8
2023-03-15T05:51:12.921Z,10.7
2023-03-15T05:56:12.951Z,11.9
2023-03-15T06:01:13.816Z,13.9
2023-03-15T06:06:12.769Z,16.5
2023-03-15T06:11:12.705Z,16.9
2023-03-15T06:16:12.682Z,18.4
2023-03-15T06:21:12.802Z,19.8
2023-03-15T06:26:12.796Z,20.9
2023-03-15T06:31:16.792Z,20.8
2023-03-15T06:36:12.971Z,21.4
2023-03-15T06:41:12.457Z,21.2
2023-03-15T06:46:14.539Z,22.5
2023-03-15T06:51:12.242Z,20.8
2023-03-15T06:56:12.461Z,23.6
2023-03-15T07:01:12.135Z,25.5
2023-03-15T07:06:13.162Z,24.9
2023-03-15T07:11:12.147Z,25.3
2023-03-15T07:16:11.999Z,24.2
2023-03-15T07:21:11.873Z,25.2
2023-03-15T07:26:11.807Z,24.4
2023-03-15T07:31:11.798Z,23.4
2023-03-15T07:36:11.707Z,24.2
2023-03-15T07:41:12.684Z,26.0
2023-03-15T07:46:11.669Z,24.9
2023-03-15T07:51:11.546Z,24.6
2023-03-15T07:56:11.483Z,24.6
2023-03-15T08:01:11.420Z,23.0
2023-03-15T08:06:11.371Z,25.0
2023-03-15T08:11:11.346Z,22.6
2023-03-15T08:16:11.311Z,21.9
2023-03-15T08:21:11.216Z,21.6
2023-03-15T08:26:11.157Z,19.8
2023-03-15T08:31:11.181Z,18.3
2023-03-15T08:36:11.089Z,15.7
2023-03-15T08:41:11.022Z,17.1
2023-03-15T08:46:10.992Z,16.8
2023-03-15T08:51:10.928Z,17.4
2023-03-15T08:56:12.895Z,17.4
2023-03-15T09:01:10.782Z,17.9
2023-03-15T09:06:10.800Z,14.2
2023-03-15T09:11:10.657Z,15.3
2023-03-15T09:16:12.668Z,15.8
2023-03-15T09:21:10.663Z,12.5
2023-03-15T09:26:10.597Z,11.7
2023-03-15T09:31:10.535Z,11.7
2023-03-15T09:36:11.474Z,12.0
2023-03-15T09:41:10.406Z,10.6
2023-03-15T09:46:10.389Z,12.0
2023-03-15T09:51:10.212Z,12.2
2023-03-15T09:56:10.179Z,11.9
2023-03-15T10:01:10.130Z,12.0
2023-03-15T10:06:10.070Z,11.4
2023-03-15T10:11:09.997Z,12.1
2023-03-15T10:16:10.075Z,13.0
2023-03-15T10:21:09.928Z,12.5
2023-03-15T10:26:09.844Z,11.3
2023-03-15T10:31:09.831Z,10.9
2023-03-15T10:36:11.430Z,9.5
2023-03-15T10:41:10.008Z,8.7
2023-03-15T10:46:09.703Z,9.0
2023-03-15T10:51:09.650Z,8.3
2023-03-15T10:56:09.498Z,9.3
2023-03-15T11:01:09.580Z,7.8
2023-03-15T11:06:09.477Z,8.4
2023-03-15T11:11:10.328Z,8.5
2023-03-15T11:16:09.441Z,8.3
2023-03-15T11:21:09.320Z,8.3
2023-03-15T11:26:09.628Z,8.7
2023-03-15T11:31:09.124Z,7.5
2023-03-15T11:36:11.224Z,5.4
2023-03-15T11:41:08.992Z,4.8
2023-03-15T11:46:09.074Z,5.3
2023-03-15T11:51:08.878Z,3.7
2023-03-15T11:56:08.840Z,3.5
2023-03-15T12:01:08.809Z,4.0
2023-03-15T12:06:08.752Z,5.0
2023-03-15T12:11:08.685Z,4.2
2023-03-15T12:16:08.616Z,3.8
2023-03-15T12:21:08.582Z,3.6
2023-03-15T12:26:08.511Z,4.4
2023-03-15T12:31:08.547Z,4.6
2023-03-15T12:36:08.413Z,4.6
2023-03-15T12:41:08.319Z,3.4
2023-03-15T12:46:08.416Z,3.6
2023-03-15T12:51:08.306Z,3.1
2023-03-15T12:56:08.981Z,2.6
2023-03-15T13:01:08.286Z,2.6
2023-03-15T13:06:08.179Z,2.9
2023-03-15T13:11:08.102Z,3.0
2023-03-15T13:16:08.092Z,2.4
2023-03-15T13:21:07.904Z,2.6
2023-03-15T13:26:07.892Z,2.8
2023-03-15T13:31:07.817Z,3.0
2023-03-15T13:36:07.719Z,2.5
2023-03-15T13:41:07.658Z,2.5
2023-03-15T13:46:07.694Z,2.0
2023-03-15T13:51:07.621Z,2.6
2023-03-15T13:56:07.542Z,2.1
2023-03-15T14:01:07.480Z,2.1
2023-03-15T14:06:07.390Z,1.9
2023-03-15T14:11:07.352Z,2.2
2023-03-15T14:16:07.371Z,1.8
2023-03-15T14:21:07.240Z,2.0
2023-03-15T14:26:07.202Z,1.6
2023-03-15T14:31:07.175Z,1.5
2023-03-15T14:36:09.452Z,1.8
2023-03-15T14:41:07.121Z,2.0
2023-03-15T14:46:07.509Z,1.8
2023-03-15T14:51:06.884Z,1.3
2023-03-15T14:56:06.948Z,1.1
2023-03-15T15:01:06.932Z,1.6
2023-03-15T15:06:08.880Z,2.4
2023-03-15T15:11:06.685Z,2.1
2023-03-15T15:16:06.776Z,1.6
2023-03-15T15:21:06.630Z,1.7
2023-03-15T15:26:06.510Z,1.3
2023-03-15T15:31:06.436Z,1.6
2023-03-15T15:36:06.454Z,1.4
2023-03-15T15:41:06.350Z,1.4
2023-03-15T15:46:06.382Z,1.5
2023-03-15T15:51:06.268Z,1.4
2023-03-15T15:56:06.218Z,1.3
2023-03-15T16:01:06.162Z,1.7
2023-03-15T16:06:06.076Z,1.8
2023-03-15T16:11:06.049Z,1.5
2023-03-15T16:16:06.021Z,2.6
2023-03-15T16:21:05.935Z,2.3
2023-03-15T16:26:06.873Z,1.4
2023-03-15T16:31:05.944Z,2.3
2023-03-15T16:36:05.898Z,1.7
2023-03-15T16:41:05.696Z,2.3
2023-03-15T16:46:05.669Z,2.1
2023-03-15T16:51:09.044Z,2.8
2023-03-15T16:56:05.506Z,2.9
2023-03-15T17:01:05.500Z,4.3
2023-03-15T17:06:05.501Z,5.6
2023-03-15T17:11:05.403Z,4.2
2023-03-15T17:16:05.384Z,3.1
2023-03-15T17:21:05.275Z,3.7
2023-03-15T17:26:05.191Z,6.1
2023-03-15T17:31:23.685Z,5.3
2023-03-15T17:36:06.094Z,3.9
2023-03-15T17:41:05.092Z,3.1
2023-03-15T17:46:04.994Z,3.7
2023-03-15T17:51:04.912Z,27.3
2023-03-15T17:56:04.905Z,6.3
2023-03-15T18:01:04.853Z,7.3
2023-03-15T18:06:04.746Z,6.8
2023-03-15T18:11:04.779Z,7.6
2023-03-15T18:16:04.863Z,8.3
2023-03-15T18:21:04.649Z,5.8
2023-03-15T18:26:04.591Z,5.1
2023-03-15T18:31:04.671Z,5.0
2023-03-15T18:36:05.658Z,3.5
2023-03-15T18:41:04.374Z,3.4
2023-03-15T18:46:04.452Z,5.6
2023-03-15T18:51:04.284Z,6.3
2023-03-15T18:56:04.236Z,12.1
2023-03-15T19:01:04.289Z,5.1
2023-03-15T19:06:04.148Z,4.6
2023-03-15T19:11:04.079Z,4.3
2023-03-15T19:16:04.114Z,7.0
2023-03-15T19:21:04.061Z,8.9
2023-03-15T19:26:03.907Z,8.5
2023-03-15T19:31:03.948Z,4.2
2023-03-15T19:36:07.274Z,3.3
2023-03-15T19:41:03.769Z,8.6
2023-03-15T19:46:03.733Z,7.9
2023-03-15T19:51:03.645Z,7.8
2023-03-15T19:56:07.114Z,10.2
2023-03-15T20:01:03.675Z,13.3
2023-03-15T20:06:03.637Z,13.9
2023-03-15T20:11:03.413Z,12.3
2023-03-15T20:16:03.414Z,8.2
2023-03-15T20:21:03.483Z,8.1
2023-03-15T20:26:03.384Z,6.0
2023-03-15T20:31:03.216Z,7.1
2023-03-15T20:36:03.177Z,7.2
2023-03-15T20:41:03.102Z,6.8
2023-03-15T20:46:03.052Z,7.2
2023-03-15T20:51:02.961Z,6.5
2023-03-15T20:56:02.918Z,6.1
2023-03-15T21:01:02.934Z,6.7
2023-03-15T21:06:03.006Z,8.0
2023-03-15T21:11:02.956Z,7.1
2023-03-15T21:16:02.919Z,8.0
2023-03-15T21:21:02.659Z,8.9
2023-03-15T21:26:02.700Z,8.8
2023-03-15T21:31:02.545Z,8.3
2023-03-15T21:36:02.505Z,5.7
2023-03-15T21:41:02.426Z,5.8
2023-03-15T21:46:02.510Z,5.9
2023-03-15T21:51:02.330Z,5.3
2023-03-15T21:56:02.390Z,5.0
2023-03-15T22:01:03.397Z,5.9
2023-03-15T22:06:02.147Z,5.6
2023-03-15T22:11:02.129Z,6.2
2023-03-15T22:16:02.239Z,7.1
2023-03-15T22:21:01.980Z,5.9
2023-03-15T22:26:02.154Z,5.8
2023-03-15T22:31:01.999Z,5.5
2023-03-15T22:36:01.870Z,7.6
2023-03-15T22:41:01.817Z,5.8
2023-03-15T22:46:01.797Z,5.3
2023-03-15T22:51:01.707Z,5.6
2023-03-15T22:56:01.760Z,6.9
2023-03-15T23:01:01.727Z,6.4
2023-03-15T23:06:01.543Z,6.4
2023-03-15T23:11:01.574Z,10.0
2023-03-15T23:16:01.539Z,13.6
2023-03-15T23:21:01.339Z,6.2
2023-03-15T23:26:01.333Z,9.9
2023-03-15T23:31:01.330Z,6.9
2023-03-15T23:36:01.308Z,6.7
2023-03-15T23:41:01.127Z,6.0
2023-03-15T23:46:01.077Z,6.0
2023-03-15T23:51:01.049Z,6.4
2023-03-15T23:56:00.948Z,8.5
